SAWG/RGL METAR and TAF weather

Enter ICAO airport designator
Station Type Date Time Source
SAWG METAR 2021/05/11 23:00 UTC NOAA

SAWG 112300Z 32011KT 9999 FEW035 SCT200 12/01 Q0992


Station Type Date Time Source
SAWG Decoded METAR 2021/05/11 23:00 UTC NOAA

Rio Gallegos Aerodrome, Argentina (SAWG) 51-37S 069-17W 19M
May 11, 2021 - 07:00 PM EDT / 2021.05.11 2300 UTC
Wind: from the NW (320 degrees) at 13 MPH (11 KT):0
Visibility: greater than 7 mile(s):0
Sky conditions: partly cloudy
Temperature: 53 F (12 C)
Dew Point: 33 F (1 C)
Relative Humidity: 46%
Pressure (altimeter): 29.29 in. Hg (0992 hPa)
ob: SAWG 112300Z 32011KT 9999 FEW035 SCT200 12/01 Q0992
cycle: 23

Station Type Date Time Source
SAWG TAF 2021/05/11 18:12 UTC NOAA

TAF SAWG 111700Z 1118/1218 35010G20KT 9999 SCT035 BKN080 TX14/1218Z TN03/1212Z
BECMG 1120/1123 32020G30KT PROB30
TEMPO 1203/1206 9999 RA SCT040
BECMG 1205/1208 29010KT

Example: see airport list